Time;durP1;ratioP1;P1;durP2;ratioP2;P2;SDS_P1;SDS_P2;PMS_P1;PMS_P2;Temp;Humidity;BMP_temperature;BMP_pressure;BME280_temperature;BME280_humidity;BME280_pressure;Samples;Min_cycle;Max_cycle;Signal;HPM_P1;HPM_P2
2022/09/16 00:00:51;;;;;;;3.25;0.95;;;11.60;99.90;;;;;;5109327;28;20050;-47
2022/09/16 00:03:17;;;;;;;3.55;0.80;;;11.50;99.90;;;;;;5091991;28;20472;-46
2022/09/16 00:05:49;;;;;;;1.42;0.80;;;11.50;99.90;;;;;;5109337;28;20031;-48
2022/09/16 00:08:15;;;;;;;2.10;0.90;;;11.50;99.90;;;;;;5091096;28;20023;-47
2022/09/16 00:10:42;;;;;;;3.15;0.90;;;11.50;99.90;;;;;;5109276;28;20026;-47
2022/09/16 00:13:08;;;;;;;1.80;0.98;;;11.50;99.90;;;;;;5090147;28;20035;-48
2022/09/16 00:15:33;;;;;;;5.47;0.93;;;11.50;99.90;;;;;;5109098;28;20034;-46
2022/09/16 00:17:59;;;;;;;2.15;1.00;;;11.50;99.90;;;;;;5089000;28;20199;-49
2022/09/16 00:20:25;;;;;;;1.60;1.05;;;11.60;99.90;;;;;;5109089;28;20036;-47
2022/09/16 00:22:50;;;;;;;2.65;0.82;;;11.60;99.90;;;;;;5083979;28;20351;-47
2022/09/16 00:25:16;;;;;;;1.25;0.85;;;11.70;99.90;;;;;;5109454;28;20023;-49
2022/09/16 00:27:41;;;;;;;3.25;0.98;;;11.80;99.90;;;;;;5108751;28;20041;-51
2022/09/16 00:30:07;;;;;;;3.13;1.20;;;11.80;99.90;;;;;;5087461;28;20052;-53
2022/09/16 00:32:33;;;;;;;1.73;0.90;;;11.90;99.90;;;;;;5108135;28;20364;-49
2022/09/16 00:34:58;;;;;;;2.45;0.82;;;11.90;99.90;;;;;;5097241;28;20059;-49
2022/09/16 00:37:24;;;;;;;2.60;1.00;;;11.90;99.90;;;;;;5089134;28;20043;-48
2022/09/16 00:39:50;;;;;;;5.57;1.00;;;11.80;99.90;;;;;;5106369;28;20302;-49
2022/09/16 00:42:17;;;;;;;3.60;1.08;;;11.80;99.90;;;;;;5108865;28;20028;-50
2022/09/16 00:44:56;;;;;;;2.78;0.75;;;11.70;99.90;;;;;;5086846;28;20043;-50
2022/09/16 00:47:24;;;;;;;5.93;1.17;;;11.60;99.90;;;;;;5108391;28;20040;-47
2022/09/16 00:49:52;;;;;;;1.02;0.70;;;11.60;99.90;;;;;;5086838;28;20028;-48
2022/09/16 00:52:18;;;;;;;2.35;0.73;;;11.50;99.90;;;;;;5108187;28;20039;-52
2022/09/16 00:54:45;;;;;;;3.65;0.77;;;11.50;99.90;;;;;;5087146;28;20032;-54
2022/09/16 00:57:13;;;;;;;1.60;0.55;;;11.40;99.90;;;;;;5107898;28;20114;-49
2022/09/16 00:59:42;;;;;;;4.38;0.77;;;11.40;99.90;;;;;;5086570;28;20665;-49
2022/09/16 01:02:14;;;;;;;1.65;0.88;;;11.40;99.90;;;;;;5108597;28;20491;-47
2022/09/16 01:04:50;;;;;;;1.20;0.80;;;11.30;99.90;;;;;;5086672;28;20036;-52
2022/09/16 01:07:20;;;;;;;2.53;0.95;;;11.30;99.90;;;;;;5067738;28;20026;-48
2022/09/16 01:09:45;;;;;;;2.22;0.93;;;11.30;99.90;;;;;;5105140;28;20499;-48
2022/09/16 01:12:11;;;;;;;2.95;1.10;;;11.30;99.90;;;;;;5106564;28;20039;-49
2022/09/16 01:14:55;;;;;;;2.67;0.85;;;11.30;99.90;;;;;;5085345;28;20042;-49
2022/09/16 01:17:32;;;;;;;2.85;0.90;;;11.20;99.90;;;;;;5066499;28;20115;-46
2022/09/16 01:20:19;;;;;;;2.53;0.70;;;11.10;99.90;;;;;;5097503;28;20028;-53
2022/09/16 01:23:12;;;;;;;1.60;0.75;;;11.10;99.90;;;;;;5068487;28;20031;-50
2022/09/16 01:25:46;;;;;;;4.20;0.73;;;11.10;99.90;;;;;;5069408;28;20098;-51
2022/09/16 01:28:39;;;;;;;4.60;0.90;;;11.10;99.90;;;;;;5072571;28;20031;-50
2022/09/16 01:31:32;;;;;;;3.55;0.90;;;11.00;99.90;;;;;;5112113;28;20487;-50
2022/09/16 01:34:14;;;;;;;1.25;0.60;;;11.00;99.90;;;;;;5084498;28;20219;-54
2022/09/16 01:37:12;;;;;;;1.88;0.68;;;10.90;99.90;;;;;;5112648;28;20031;-47
2022/09/16 01:39:54;;;;;;;1.67;0.60;;;10.80;99.90;;;;;;5095426;28;20036;-47
2022/09/16 01:42:53;;;;;;;2.85;0.93;;;10.80;99.90;;;;;;5071517;28;20020;-48
2022/09/16 01:45:36;;;;;;;1.50;0.60;;;10.70;99.90;;;;;;5105323;28;20043;-47
2022/09/16 01:48:11;;;;;;;2.63;0.80;;;10.70;99.90;;;;;;5071398;28;20031;-48
2022/09/16 01:50:47;;;;;;;2.15;0.70;;;10.60;99.90;;;;;;5071204;28;20032;-47
2022/09/16 01:53:19;;;;;;;2.83;0.60;;;10.60;99.90;;;;;;5070528;28;20039;-47
2022/09/16 01:55:51;;;;;;;2.28;0.75;;;10.50;99.90;;;;;;5111912;28;20035;-48
2022/09/16 01:58:33;;;;;;;1.15;0.60;;;10.50;99.90;;;;;;5071660;28;20039;-47
2022/09/16 02:01:04;;;;;;;1.80;0.60;;;10.50;99.90;;;;;;5111888;28;20031;-48
2022/09/16 02:03:35;;;;;;;3.17;0.70;;;10.40;99.90;;;;;;5074956;28;20092;-50
2022/09/16 02:06:17;;;;;;;3.58;0.80;;;10.40;99.90;;;;;;5111741;28;20098;-47
2022/09/16 02:08:48;;;;;;;1.60;0.77;;;10.40;99.90;;;;;;5078427;28;20028;-48
2022/09/16 02:11:16;;;;;;;2.60;0.60;;;10.30;99.90;;;;;;5111631;28;20106;-48
2022/09/16 02:13:48;;;;;;;2.40;0.80;;;10.30;99.90;;;;;;5093406;28;20034;-48
2022/09/16 02:16:25;;;;;;;6.25;1.00;;;10.30;99.90;;;;;;5111219;28;20035;-49
2022/09/16 02:19:01;;;;;;;1.90;0.70;;;10.30;99.90;;;;;;5079651;28;20070;-49
2022/09/16 02:21:30;;;;;;;1.50;0.80;;;10.30;99.90;;;;;;5111361;28;20020;-48
2022/09/16 02:24:01;;;;;;;4.95;0.70;;;10.30;99.90;;;;;;5086933;28;20028;-62
2022/09/16 02:26:32;;;;;;;4.25;1.00;;;10.30;99.90;;;;;;5111132;28;20048;-68
2022/09/16 02:29:00;;;;;;;3.75;0.80;;;10.30;99.90;;;;;;5080515;28;20107;-68
2022/09/16 02:31:32;;;;;;;2.85;0.90;;;10.30;99.90;;;;;;5110925;28;20602;-69
2022/09/16 02:34:15;;;;;;;2.13;0.90;;;10.40;99.90;;;;;;5080280;28;20487;-68
2022/09/16 02:36:44;;;;;;;3.30;1.02;;;10.40;99.90;;;;;;5109923;28;20552;-68
2022/09/16 02:39:17;;;;;;;2.08;0.68;;;10.40;99.90;;;;;;5095897;28;20400;-68
2022/09/16 02:41:43;;;;;;;2.42;1.10;;;10.40;99.90;;;;;;5110678;28;20020;-68
2022/09/16 02:44:10;;;;;;;2.38;0.90;;;10.40;99.90;;;;;;5096134;28;20035;-68
2022/09/16 02:46:42;;;;;;;3.60;1.00;;;10.40;99.90;;;;;;5110825;28;20055;-68
2022/09/16 02:49:22;;;;;;;7.13;0.80;;;10.40;99.90;;;;;;5095311;28;20027;-68
2022/09/16 02:52:00;;;;;;;5.03;0.90;;;10.40;99.90;;;;;;5110711;28;20392;-68
2022/09/16 02:54:47;;;;;;;5.07;1.15;;;10.40;99.90;;;;;;5086392;28;20139;-68
2022/09/16 02:57:13;;;;;;;2.42;0.70;;;10.50;99.90;;;;;;5090674;28;20074;-68
2022/09/16 02:59:40;;;;;;;1.30;0.90;;;10.50;99.90;;;;;;5107916;28;20035;-68
2022/09/16 03:02:05;;;;;;;3.13;0.75;;;10.40;99.90;;;;;;5090285;28;20036;-68
2022/09/16 03:04:33;;;;;;;1.98;0.80;;;10.40;99.90;;;;;;5106394;28;20034;-68
2022/09/16 03:06:59;;;;;;;2.65;0.88;;;10.40;99.90;;;;;;5089857;28;20107;-68
2022/09/16 03:09:24;;;;;;;5.53;0.95;;;10.40;99.90;;;;;;5106198;28;20186;-68
2022/09/16 03:11:59;;;;;;;4.22;1.10;;;10.40;99.90;;;;;;5090468;28;20023;-69
2022/09/16 03:14:47;;;;;;;3.30;1.00;;;10.30;99.90;;;;;;5083822;28;20042;-68
2022/09/16 03:17:36;;;;;;;1.80;0.80;;;10.30;99.90;;;;;;5090519;28;20028;-69
2022/09/16 03:20:19;;;;;;;3.08;0.93;;;10.40;99.90;;;;;;5095149;28;20039;-68
2022/09/16 03:23:10;;;;;;;6.57;1.30;;;10.40;99.90;;;;;;5067850;28;20035;-55
2022/09/16 03:26:14;;;;;;;5.80;1.20;;;10.40;99.90;;;;;;5108030;28;20128;-53
2022/09/16 03:29:11;;;;;;;4.07;1.00;;;10.40;99.90;;;;;;5071022;28;20438;-53
2022/09/16 03:31:56;;;;;;;2.95;1.13;;;10.50;99.90;;;;;;5109815;28;20671;-47
2022/09/16 03:34:34;;;;;;;5.32;1.15;;;10.50;99.90;;;;;;5082368;28;20051;-46
2022/09/16 03:37:04;;;;;;;1.30;0.98;;;10.60;99.90;;;;;;5069112;28;20021;-47
2022/09/16 03:39:31;;;;;;;5.57;1.20;;;10.60;99.90;;;;;;5084270;28;20027;-48
2022/09/16 03:42:06;;;;;;;1.58;0.95;;;10.70;99.90;;;;;;5089786;28;20361;-47
2022/09/16 03:44:34;;;;;;;2.00;1.40;;;10.70;99.90;;;;;;5084365;28;20494;-48
2022/09/16 03:47:00;;;;;;;5.50;1.75;;;10.70;99.90;;;;;;5088160;28;20430;-46
2022/09/16 03:49:26;;;;;;;3.75;1.73;;;10.70;99.90;;;;;;5106481;28;20433;-47
2022/09/16 03:51:51;;;;;;;2.30;1.42;;;10.70;99.90;;;;;;5109504;28;20031;-47
2022/09/16 03:54:17;;;;;;;2.80;1.20;;;10.60;99.90;;;;;;5094315;28;20088;-49
2022/09/16 03:56:42;;;;;;;3.40;1.30;;;10.60;99.90;;;;;;5109270;28;20407;-48
2022/09/16 03:59:08;;;;;;;3.42;1.60;;;10.60;99.90;;;;;;5092720;28;20059;-46
2022/09/16 04:01:33;;;;;;;3.67;1.30;;;10.60;99.90;;;;;;5108274;28;20476;-48
2022/09/16 04:03:59;;;;;;;4.30;1.50;;;10.60;99.90;;;;;;5091448;28;20039;-46
2022/09/16 04:06:24;;;;;;;5.05;1.35;;;10.60;99.90;;;;;;5109256;28;20068;-47
2022/09/16 04:08:50;;;;;;;5.45;2.10;;;10.70;99.90;;;;;;5089986;28;20108;-45
2022/09/16 04:11:16;;;;;;;2.20;1.33;;;10.60;99.90;;;;;;5109360;28;20019;-47
2022/09/16 04:13:42;;;;;;;4.97;1.70;;;10.60;99.90;;;;;;5087308;28;20036;-47
2022/09/16 04:16:07;;;;;;;4.07;1.83;;;10.60;99.90;;;;;;5088744;28;20028;-46
2022/09/16 04:18:33;;;;;;;5.53;2.15;;;10.50;99.90;;;;;;5088702;28;20362;-47
2022/09/16 04:21:01;;;;;;;2.72;1.40;;;10.50;99.90;;;;;;5107017;28;20043;-48
2022/09/16 04:23:28;;;;;;;3.53;1.60;;;10.50;99.90;;;;;;5094068;28;20111;-53
2022/09/16 04:25:55;;;;;;;3.22;1.83;;;10.50;99.90;;;;;;5087226;28;20030;-48
2022/09/16 04:28:21;;;;;;;2.13;1.38;;;10.50;99.90;;;;;;5108658;28;20062;-50
2022/09/16 04:30:46;;;;;;;7.28;2.15;;;10.50;99.90;;;;;;5084250;28;20504;-48
2022/09/16 04:33:11;;;;;;;4.82;1.67;;;10.50;99.90;;;;;;5098125;28;20043;-49
2022/09/16 04:35:37;;;;;;;3.58;1.63;;;10.60;99.90;;;;;;5084418;28;20117;-47
2022/09/16 04:38:02;;;;;;;3.03;1.63;;;10.60;99.90;;;;;;5087160;28;20032;-53
2022/09/16 04:40:28;;;;;;;6.82;2.13;;;10.60;99.90;;;;;;5106175;28;20036;-48
2022/09/16 04:42:53;;;;;;;2.22;1.60;;;10.60;99.90;;;;;;5093836;28;20035;-53
2022/09/16 04:45:19;;;;;;;3.55;1.50;;;10.70;99.90;;;;;;5106821;28;20040;-49
2022/09/16 04:47:44;;;;;;;4.70;1.73;;;10.70;99.90;;;;;;5109118;28;20073;-48
2022/09/16 04:50:10;;;;;;;5.28;1.80;;;10.70;99.90;;;;;;5086493;28;20368;-51
2022/09/16 04:52:36;;;;;;;6.28;1.85;;;10.80;99.90;;;;;;5108264;28;20035;-53
2022/09/16 04:55:02;;;;;;;4.82;1.80;;;10.80;99.90;;;;;;5098361;28;20054;-48
2022/09/16 04:57:31;;;;;;;4.63;1.67;;;10.90;99.90;;;;;;5089166;28;20131;-54
2022/09/16 04:59:57;;;;;;;4.45;1.75;;;10.90;99.90;;;;;;5106808;28;20688;-52
2022/09/16 05:02:23;;;;;;;2.90;1.67;;;10.90;99.90;;;;;;5093216;28;20077;-53
2022/09/16 05:04:48;;;;;;;2.60;1.60;;;10.90;99.90;;;;;;5110202;28;20023;-54
2022/09/16 05:07:14;;;;;;;6.88;1.90;;;11.00;99.90;;;;;;5092631;28;20046;-49
2022/09/16 05:09:40;;;;;;;3.78;1.10;;;11.00;99.90;;;;;;5109844;28;20035;-52
2022/09/16 05:12:06;;;;;;;4.00;1.60;;;11.10;99.90;;;;;;5112421;28;20059;-51
2022/09/16 05:14:31;;;;;;;4.63;1.90;;;11.10;99.90;;;;;;5096947;28;20019;-53
2022/09/16 05:16:57;;;;;;;2.83;1.60;;;11.20;99.90;;;;;;5112419;28;20019;-54
2022/09/16 05:19:22;;;;;;;6.10;2.28;;;11.20;99.90;;;;;;5095387;28;20085;-51
2022/09/16 05:21:48;;;;;;;2.33;1.50;;;11.20;99.90;;;;;;5112233;28;20038;-55
2022/09/16 05:24:13;;;;;;;4.15;1.63;;;11.40;99.90;;;;;;5087554;28;20149;-54
2022/09/16 05:26:40;;;;;;;3.42;1.15;;;11.40;99.90;;;;;;5112462;28;20047;-47
2022/09/16 05:29:09;;;;;;;2.42;1.30;;;11.60;99.90;;;;;;5092722;28;20029;-47
2022/09/16 05:31:37;;;;;;;1.85;1.02;;;11.80;99.90;;;;;;5112220;28;20566;-50
2022/09/16 05:34:17;;;;;;;3.92;1.83;;;12.10;99.90;;;;;;5092269;28;20116;-49
2022/09/16 05:36:46;;;;;;;2.15;1.25;;;12.60;99.90;;;;;;5111977;28;20065;-51
2022/09/16 05:39:12;;;;;;;3.45;1.38;;;12.90;99.90;;;;;;5110141;28;20498;-53
2022/09/16 05:41:38;;;;;;;4.13;1.20;;;13.00;99.90;;;;;;5111820;28;20621;-47
2022/09/16 05:44:05;;;;;;;3.22;1.40;;;13.00;99.90;;;;;;5091582;28;20111;-51
2022/09/16 05:46:32;;;;;;;5.15;1.50;;;13.20;99.90;;;;;;5112031;28;20088;-48
2022/09/16 05:48:57;;;;;;;1.65;0.90;;;13.50;99.90;;;;;;5090336;28;20047;-48
2022/09/16 05:51:24;;;;;;;6.15;1.40;;;14.10;99.90;;;;;;5111828;28;20028;-48
2022/09/16 05:53:52;;;;;;;3.05;1.10;;;14.50;99.90;;;;;;5091558;27;20028;-49
2022/09/16 05:56:20;;;;;;;2.90;1.10;;;14.40;99.30;;;;;;5109118;28;20039;-51
2022/09/16 05:58:46;;;;;;;2.97;1.42;;;14.10;98.70;;;;;;5091479;28;20202;-47
2022/09/16 06:01:17;;;;;;;5.05;1.40;;;13.90;99.90;;;;;;5109002;28;20081;-53
2022/09/16 06:03:44;;;;;;;5.53;1.48;;;13.80;99.90;;;;;;5111254;28;20035;-48
2022/09/16 06:06:25;;;;;;;4.35;0.93;;;13.60;99.90;;;;;;5089554;28;20051;-47
2022/09/16 06:08:52;;;;;;;2.58;1.30;;;13.50;99.90;;;;;;5070916;28;20078;-48
2022/09/16 06:11:19;;;;;;;3.47;1.27;;;13.40;99.90;;;;;;5108406;28;20377;-49
2022/09/16 06:13:45;;;;;;;4.70;1.10;;;13.30;99.90;;;;;;5111343;28;20049;-48
2022/09/16 06:16:13;;;;;;;2.55;1.52;;;13.30;99.90;;;;;;5089439;28;20491;-50
2022/09/16 06:18:38;;;;;;;3.15;1.10;;;13.20;99.90;;;;;;5110995;28;20491;-49
2022/09/16 06:21:10;;;;;;;2.05;0.95;;;13.10;99.90;;;;;;5089432;28;20119;-47
2022/09/16 06:23:37;;;;;;;2.65;1.30;;;13.10;99.90;;;;;;5094115;28;20020;-48
2022/09/16 06:26:05;;;;;;;5.18;1.33;;;13.10;99.90;;;;;;5108631;28;20319;-47
2022/09/16 06:28:30;;;;;;;4.57;1.33;;;13.10;99.90;;;;;;5111013;28;20106;-49
2022/09/16 06:31:06;;;;;;;1.58;0.88;;;13.10;99.90;;;;;;5089262;28;20544;-49
2022/09/16 06:33:33;;;;;;;3.85;1.35;;;13.20;99.90;;;;;;5110754;28;20031;-47
2022/09/16 06:36:03;;;;;;;2.40;0.90;;;13.20;99.90;;;;;;5088680;28;20332;-51
2022/09/16 06:38:28;;;;;;;6.05;1.77;;;13.30;99.90;;;;;;5110813;28;20023;-51
2022/09/16 06:40:57;;;;;;;3.70;1.33;;;13.40;99.90;;;;;;5089107;28;20403;-50
2022/09/16 06:43:23;;;;;;;2.15;1.23;;;13.50;99.90;;;;;;5110651;28;20023;-52
2022/09/16 06:45:48;;;;;;;2.45;1.08;;;13.70;99.90;;;;;;5089249;28;20395;-51
2022/09/16 06:48:14;;;;;;;4.20;1.10;;;13.80;99.30;;;;;;5109804;28;20441;-50
2022/09/16 06:50:40;;;;;;;7.93;1.15;;;13.90;98.50;;;;;;5088950;28;20062;-49
2022/09/16 06:53:05;;;;;;;6.90;1.10;;;14.00;96.10;;;;;;5110215;28;20031;-49
2022/09/16 06:55:30;;;;;;;3.65;1.30;;;14.10;95.90;;;;;;5088764;28;20032;-49
2022/09/16 06:57:56;;;;;;;1.67;0.98;;;14.30;92.50;;;;;;5109859;28;20108;-52
2022/09/16 07:00:21;;;;;;;4.57;1.10;;;14.30;95.40;;;;;;5098575;28;20110;-53
2022/09/16 07:02:47;;;;;;;3.28;1.00;;;14.40;96.30;;;;;;5090739;28;20059;-53
2022/09/16 07:05:13;;;;;;;4.30;1.55;;;14.40;94.90;;;;;;5107468;28;20495;-52
2022/09/16 07:07:39;;;;;;;5.32;1.10;;;14.50;93.30;;;;;;5090193;28;20032;-52
2022/09/16 07:10:06;;;;;;;2.20;1.00;;;14.60;91.10;;;;;;5107651;28;20567;-52
2022/09/16 07:12:31;;;;;;;1.77;1.08;;;14.50;92.40;;;;;;5110035;28;20023;-52
2022/09/16 07:14:57;;;;;;;2.15;0.82;;;14.50;93.60;;;;;;5093568;28;20039;-49
2022/09/16 07:17:26;;;;;;;1.17;0.73;;;14.50;91.20;;;;;;5109979;28;20027;-50
2022/09/16 07:19:51;;;;;;;2.03;0.90;;;14.70;90.80;;;;;;5093160;28;20111;-50
2022/09/16 07:22:17;;;;;;;2.72;0.80;;;15.00;90.70;;;;;;5110025;28;20149;-50
2022/09/16 07:24:43;;;;;;;3.00;1.20;;;15.30;90.10;;;;;;5087931;28;20395;-48
2022/09/16 07:27:08;;;;;;;1.42;0.70;;;15.60;89.30;;;;;;5110226;28;20475;-48
2022/09/16 07:29:33;;;;;;;2.35;0.82;;;16.00;86.80;;;;;;5090900;28;20059;-47
2022/09/16 07:31:59;;;;;;;1.40;0.75;;;16.50;84.30;;;;;;5110273;28;20102;-47
2022/09/16 07:34:24;;;;;;;1.77;0.73;;;16.90;81.20;;;;;;5093143;28;20036;-51
2022/09/16 07:36:50;;;;;;;1.83;0.88;;;17.10;82.80;;;;;;5109817;28;20048;-52
2022/09/16 07:39:17;;;;;;;2.72;0.93;;;17.20;72.50;;;;;;5109005;28;20027;-50
2022/09/16 07:41:45;;;;;;;4.10;1.00;;;17.30;76.00;;;;;;5109921;28;20487;-49
2022/09/16 07:44:13;;;;;;;2.72;1.23;;;17.20;68.70;;;;;;5089739;28;20031;-51
2022/09/16 07:46:38;;;;;;;4.43;1.00;;;17.30;70.60;;;;;;5107646;28;20053;-50
2022/09/16 07:49:07;;;;;;;3.28;0.93;;;17.50;71.80;;;;;;5109361;28;20038;-56
2022/09/16 07:51:33;;;;;;;3.05;1.17;;;17.70;70.40;;;;;;5087894;28;20036;-49
2022/09/16 07:54:04;;;;;;;3.50;0.90;;;17.70;59.40;;;;;;5108995;28;20081;-52
2022/09/16 07:56:33;;;;;;;4.10;0.95;;;17.70;63.60;;;;;;5087492;28;20507;-52
2022/09/16 07:58:59;;;;;;;2.35;0.85;;;18.00;65.60;;;;;;5109014;28;20051;-54
2022/09/16 08:01:26;;;;;;;3.92;0.80;;;18.30;58.20;;;;;;5087888;28;20035;-49
2022/09/16 08:03:52;;;;;;;1.40;0.70;;;18.50;66.60;;;;;;5108679;28;20027;-51
2022/09/16 08:06:20;;;;;;;2.47;0.90;;;18.80;63.30;;;;;;5087692;28;20028;-50
2022/09/16 08:08:46;;;;;;;4.25;1.23;;;19.20;66.00;;;;;;5109100;28;20463;-50
2022/09/16 08:11:14;;;;;;;2.05;0.68;;;19.40;63.80;;;;;;5087548;28;20307;-53
2022/09/16 08:13:40;;;;;;;2.50;1.00;;;19.70;63.20;;;;;;5108945;28;20497;-46
2022/09/16 08:16:12;;;;;;;3.83;0.70;;;19.80;58.10;;;;;;5087462;28;20491;-51
2022/09/16 08:18:38;;;;;;;1.55;0.90;;;19.70;58.40;;;;;;5068791;28;20039;-46
2022/09/16 08:21:09;;;;;;;3.20;0.98;;;19.70;56.00;;;;;;5104499;28;20027;-50
2022/09/16 08:23:36;;;;;;;2.03;0.80;;;19.60;48.30;;;;;;5092796;28;20056;-51
2022/09/16 08:26:02;;;;;;;3.22;0.80;;;19.40;53.80;;;;;;5107035;28;20031;-74
2022/09/16 08:28:28;;;;;;;2.30;0.90;;;19.20;53.60;;;;;;5108858;28;20111;-68
2022/09/16 08:30:57;;;;;;;2.65;0.63;;;19.20;53.70;;;;;;5087602;28;20111;-52
2022/09/16 08:33:24;;;;;;;3.72;0.85;;;18.90;50.40;;;;;;5107385;28;20426;-53
2022/09/16 08:36:01;;;;;;;2.42;0.80;;;18.70;53.00;;;;;;5088758;28;20145;-48
2022/09/16 08:38:27;;;;;;;3.80;0.93;;;18.60;51.40;;;;;;5072590;28;20210;-53
2022/09/16 08:41:06;;;;;;;3.17;0.80;;;18.60;53.20;;;;;;5110257;28;20085;-49
2022/09/16 08:43:40;;;;;;;1.00;0.77;;;18.60;49.20;;;;;;5072705;28;20040;-52
2022/09/16 08:46:19;;;;;;;3.60;1.00;;;18.80;51.20;;;;;;5097705;28;20384;-55
2022/09/16 08:49:06;;;;;;;2.25;0.93;;;19.10;48.50;;;;;;5072761;28;20106;-51
2022/09/16 08:51:32;;;;;;;3.60;0.85;;;19.20;48.90;;;;;;5104830;28;20035;-50
2022/09/16 08:54:05;;;;;;;3.15;1.08;;;19.00;51.60;;;;;;5112778;28;20035;-53
2022/09/16 08:56:36;;;;;;;4.05;0.90;;;18.80;48.10;;;;;;5103888;28;20164;-49
2022/09/16 08:59:09;;;;;;;4.22;0.70;;;18.60;51.10;;;;;;5072140;28;20025;-55
2022/09/16 09:01:48;;;;;;;3.92;0.95;;;18.40;49.60;;;;;;5104658;28;20510;-50
2022/09/16 09:04:14;;;;;;;1.58;0.73;;;18.30;48.80;;;;;;5072108;28;20056;-54
2022/09/16 09:06:55;;;;;;;3.22;0.95;;;18.10;50.30;;;;;;5109640;28;20451;-49
2022/09/16 09:09:50;;;;;;;2.10;0.77;;;17.90;49.90;;;;;;5072020;28;20484;-54
2022/09/16 09:12:30;;;;;;;1.85;0.70;;;17.70;50.00;;;;;;5072138;28;20115;-55
2022/09/16 09:15:12;;;;;;;5.22;0.85;;;17.80;50.00;;;;;;5075795;28;20247;-54
2022/09/16 09:18:05;;;;;;;2.28;0.73;;;17.80;49.60;;;;;;5112679;28;20027;-51
2022/09/16 09:20:47;;;;;;;1.92;0.50;;;18.10;48.30;;;;;;5085187;28;20031;-48
2022/09/16 09:23:34;;;;;;;2.15;0.68;;;18.30;49.10;;;;;;5102167;28;20035;-52
2022/09/16 09:26:22;;;;;;;1.70;0.90;;;18.40;49.30;;;;;;5101578;28;20261;-47
2022/09/16 09:29:14;;;;;;;1.90;0.98;;;18.50;46.20;;;;;;5091935;28;20024;-50
2022/09/16 09:32:11;;;;;;;1.58;0.77;;;18.50;44.80;;;;;;5103791;28;20096;-48
2022/09/16 09:34:46;;;;;;;3.72;0.70;;;18.30;47.40;;;;;;5085517;28;20507;-51
2022/09/16 09:37:27;;;;;;;2.13;0.90;;;18.30;45.80;;;;;;5071989;28;20028;-53
2022/09/16 09:40:11;;;;;;;2.25;1.00;;;18.20;47.50;;;;;;5073097;28;20048;-51
2022/09/16 09:42:45;;;;;;;3.08;0.88;;;18.30;47.50;;;;;;5112277;28;20395;-48
2022/09/16 09:45:24;;;;;;;3.95;0.88;;;18.40;45.00;;;;;;5077958;28;20097;-47
2022/09/16 09:48:16;;;;;;;2.17;0.70;;;18.60;46.80;;;;;;5111616;28;20560;-47
2022/09/16 09:50:47;;;;;;;1.85;0.73;;;18.90;43.50;;;;;;5086197;28;20069;-50
2022/09/16 09:53:28;;;;;;;5.25;0.70;;;19.10;47.00;;;;;;5091874;28;20064;-50
2022/09/16 09:56:21;;;;;;;2.88;0.70;;;19.30;44.60;;;;;;5089078;28;20024;-55
2022/09/16 09:58:59;;;;;;;3.53;0.70;;;19.40;39.70;;;;;;5091635;28;20028;-50
2022/09/16 10:01:25;;;;;;;2.15;0.60;;;19.60;42.00;;;;;;5097985;28;20440;-51
2022/09/16 10:03:53;;;;;;;3.80;0.93;;;19.50;41.20;;;;;;5112006;28;20115;-48
2022/09/16 10:06:25;;;;;;;2.40;0.88;;;19.50;37.80;;;;;;5089742;28;20093;-50
2022/09/16 10:08:53;;;;;;;2.55;0.70;;;19.40;36.80;;;;;;5071364;28;20067;-49
2022/09/16 10:11:22;;;;;;;1.67;0.68;;;19.10;37.50;;;;;;5109319;28;20436;-51
2022/09/16 10:13:54;;;;;;;3.72;0.77;;;19.10;39.20;;;;;;5111680;28;20035;-48
2022/09/16 10:16:29;;;;;;;2.10;0.68;;;19.20;39.80;;;;;;5090000;28;20020;-50
2022/09/16 10:19:06;;;;;;;3.58;1.05;;;19.30;36.00;;;;;;5111780;28;20081;-47
2022/09/16 10:21:48;;;;;;;2.90;0.75;;;19.20;36.00;;;;;;5098102;28;20150;-54
2022/09/16 10:24:33;;;;;;;5.10;1.23;;;19.30;35.60;;;;;;5108361;28;20030;-57
2022/09/16 10:26:59;;;;;;;2.22;1.15;;;19.20;32.50;;;;;;5105271;28;20023;-52
2022/09/16 10:29:25;;;;;;;4.88;0.90;;;19.10;35.20;;;;;;5111745;28;20061;-55
2022/09/16 10:31:52;;;;;;;4.57;0.90;;;19.00;34.50;;;;;;5087896;28;20067;-51
2022/09/16 10:34:32;;;;;;;4.10;0.82;;;18.90;34.50;;;;;;5106401;28;20032;-54
2022/09/16 10:36:59;;;;;;;4.55;0.80;;;18.80;31.80;;;;;;5099768;28;20104;-50
2022/09/16 10:39:26;;;;;;;3.10;1.00;;;18.60;32.50;;;;;;5091128;28;20032;-54
2022/09/16 10:41:51;;;;;;;6.50;1.05;;;18.50;33.40;;;;;;5109216;28;20027;-55
2022/09/16 10:44:30;;;;;;;6.88;1.08;;;18.50;33.00;;;;;;5111393;28;20031;-54
2022/09/16 10:46:57;;;;;;;5.63;0.98;;;18.70;33.30;;;;;;5085869;28;20036;-48
2022/09/16 10:49:44;;;;;;;2.58;0.90;;;18.90;34.40;;;;;;5092725;28;20028;-52
2022/09/16 10:52:41;;;;;;;3.40;0.93;;;19.00;32.40;;;;;;5109357;28;20096;-53
2022/09/16 10:55:27;;;;;;;4.95;1.70;;;18.70;28.60;;;;;;5071038;28;20040;-48
2022/09/16 10:58:15;;;;;;;2.55;1.10;;;18.60;30.00;;;;;;5110315;28;20046;-49
2022/09/16 11:01:15;;;;;;;3.05;1.00;;;18.50;30.20;;;;;;5080328;28;20043;-51
2022/09/16 11:04:05;;;;;;;4.10;0.90;;;18.40;29.70;;;;;;5070529;28;20463;-51
2022/09/16 11:06:55;;;;;;;4.38;0.73;;;18.20;30.90;;;;;;5093892;28;20050;-51
2022/09/16 11:09:25;;;;;;;3.45;0.95;;;18.00;30.80;;;;;;5110920;28;20040;-53
2022/09/16 11:12:05;;;;;;;4.95;0.98;;;17.90;30.90;;;;;;5099555;28;20039;-51
2022/09/16 11:14:47;;;;;;;4.72;1.25;;;17.90;32.00;;;;;;5069957;28;20555;-51
2022/09/16 11:17:52;;;;;;;3.72;1.08;;;18.00;30.80;;;;;;5101036;28;20021;-48
2022/09/16 11:20:26;;;;;;;3.47;0.60;;;18.10;29.50;;;;;;5070170;28;20423;-47
2022/09/16 11:23:00;;;;;;;4.10;0.90;;;18.20;29.70;;;;;;5100929;28;20649;-46
2022/09/16 11:25:47;;;;;;;4.22;0.90;;;18.10;30.50;;;;;;5090280;28;20024;-46
2022/09/16 11:28:40;;;;;;;2.30;0.60;;;18.00;29.00;;;;;;5109599;28;20383;-47
2022/09/16 11:31:24;;;;;;;4.28;0.80;;;17.90;28.80;;;;;;5084522;28;20036;-47
2022/09/16 11:34:23;;;;;;;3.95;1.00;;;17.90;29.40;;;;;;5090004;28;20024;-46
2022/09/16 11:37:08;;;;;;;5.38;1.25;;;17.80;29.90;;;;;;5107820;28;20036;-48
2022/09/16 11:40:23;;;;;;;1.55;0.80;;;17.90;30.50;;;;;;5088949;28;20063;-47
2022/09/16 11:43:08;;;;;;;3.53;1.05;;;17.90;30.50;;;;;;5071365;28;20040;-46
2022/09/16 11:45:50;;;;;;;1.25;0.60;;;18.00;29.00;;;;;;5074328;28;20032;-46
2022/09/16 11:48:53;;;;;;;2.80;0.70;;;17.90;29.70;;;;;;5109334;28;20026;-47
2022/09/16 11:52:03;;;;;;;3.17;0.52;;;17.90;29.40;;;;;;5097474;28;20056;-47
2022/09/16 11:55:04;;;;;;;2.95;0.82;;;17.90;30.00;;;;;;5068637;28;20103;-48
2022/09/16 11:57:35;;;;;;;3.75;0.82;;;18.00;30.80;;;;;;5093775;28;20048;-49
2022/09/16 12:00:12;;;;;;;4.80;0.80;;;18.10;30.40;;;;;;5068646;28;20033;-46
2022/09/16 12:02:54;;;;;;;3.90;0.90;;;18.20;29.20;;;;;;5068713;28;20082;-47
2022/09/16 12:05:38;;;;;;;5.15;1.00;;;18.10;28.10;;;;;;5069179;28;20032;-44
2022/09/16 12:08:28;;;;;;;3.25;0.90;;;18.10;27.40;;;;;;5109028;28;20024;-47
2022/09/16 12:11:06;;;;;;;1.40;0.80;;;18.10;27.50;;;;;;5078448;28;20034;-44
2022/09/16 12:13:39;;;;;;;1.88;0.70;;;17.90;26.50;;;;;;5107850;28;20392;-45
2022/09/16 12:16:11;;;;;;;3.28;0.95;;;17.90;28.00;;;;;;5081206;28;20027;-46
2022/09/16 12:18:47;;;;;;;1.50;0.65;;;17.90;28.30;;;;;;5108976;28;20035;-51
2022/09/16 12:21:37;;;;;;;3.00;0.80;;;17.90;27.70;;;;;;5083021;28;20242;-45
2022/09/16 12:24:12;;;;;;;3.90;0.88;;;18.00;28.40;;;;;;5064082;28;20508;-45
2022/09/16 12:27:06;;;;;;;2.22;0.70;;;18.00;29.30;;;;;;5088564;28;20563;-47
2022/09/16 12:29:42;;;;;;;5.22;0.90;;;18.20;28.60;;;;;;5067007;28;20071;-47
2022/09/16 12:32:13;;;;;;;3.38;0.75;;;18.30;27.60;;;;;;5097620;28;20024;-49
2022/09/16 12:35:01;;;;;;;2.97;0.70;;;18.40;26.60;;;;;;5082632;28;20067;-45
2022/09/16 12:37:42;;;;;;;5.25;0.80;;;18.50;27.10;;;;;;5106788;28;20118;-47
2022/09/16 12:40:43;;;;;;;4.90;1.10;;;18.50;25.50;;;;;;5068088;28;20060;-47
2022/09/16 12:43:45;;;;;;;2.63;0.80;;;18.50;25.40;;;;;;5067834;28;20040;-45
2022/09/16 12:46:41;;;;;;;2.83;1.00;;;18.50;26.00;;;;;;5105287;28;20039;-48
2022/09/16 12:49:36;;;;;;;4.70;0.90;;;18.50;25.30;;;;;;5108611;28;20035;-49
2022/09/16 12:52:25;;;;;;;2.85;0.85;;;18.50;25.70;;;;;;5094636;28;20487;-50
2022/09/16 12:55:12;;;;;;;1.92;0.85;;;18.50;24.30;;;;;;5068107;28;20031;-50
2022/09/16 12:57:58;;;;;;;2.83;0.90;;;18.60;24.80;;;;;;5104451;28;20055;-47
2022/09/16 13:00:36;;;;;;;1.85;0.73;;;18.50;23.30;;;;;;5066698;28;20447;-46
2022/09/16 13:03:12;;;;;;;3.05;0.75;;;18.50;24.00;;;;;;5108527;28;20020;-48
2022/09/16 13:05:38;;;;;;;4.50;0.90;;;18.30;22.90;;;;;;5070226;28;20099;-50
2022/09/16 13:08:15;;;;;;;4.97;0.70;;;18.30;23.20;;;;;;5108721;28;20076;-50
2022/09/16 13:10:41;;;;;;;3.75;1.00;;;18.10;22.40;;;;;;5070747;28;20040;-49
2022/09/16 13:13:15;;;;;;;3.38;1.08;;;18.10;23.90;;;;;;5108518;28;20479;-51
2022/09/16 13:15:41;;;;;;;2.92;0.63;;;18.00;23.90;;;;;;5070504;28;20043;-46
2022/09/16 13:18:18;;;;;;;2.47;0.70;;;17.90;24.00;;;;;;5108452;28;20016;-45
2022/09/16 13:20:50;;;;;;;1.75;0.65;;;17.80;23.90;;;;;;5070748;28;20248;-46